KFFO/FFO METAR and TAF weather

Enter ICAO airport designator
Station Type Date Time Source
KFFO METAR 2021/07/28 19:56 UTC NOAA

KFFO 281956Z AUTO 04004KT 10SM CLR 30/17 A3004 RMK AO2 SLP169 T03020173


Station Type Date Time Source
KFFO Decoded METAR 2021/07/28 19:56 UTC NOAA

Dayton / Wright-Patterson Air Force Base, OH, United States (KFFO) 39-50N 084-03W 251M
Jul 28, 2021 - 03:56 PM EDT / 2021.07.28 1956 UTC
Wind: from the NE (040 degrees) at 5 MPH (4 KT):0
Visibility: 10 mile(s):0
Sky conditions: clear
Temperature: 86.4 F (30.2 C)
Dew Point: 63.1 F (17.3 C)
Relative Humidity: 45%
Pressure (altimeter): 30.04 in. Hg (1017 hPa)
ob: KFFO 281956Z AUTO 04004KT 10SM CLR 30/17 A3004 RMK AO2 SLP169 T03020173
cycle: 20

Station Type Date Time Source
KFFO TAF 2021/07/28 19:15 UTC NOAA

TAF KFFO 281901Z 2819/3001 30007KT 9999 SCT040 QNH3003INS
BECMG 2823/2824 VRB06KT 9999 FEW035 QNH2995INS
BECMG 2909/2910 26009KT 6000 -SHRA BR SCT025 BKN120 BKN250 QNH2991INS
TEMPO 2911/2914 26012G18KT 3200 TSRA BR BKN020CB OVC100
BECMG 2914/2915 26015G25KT 9999 NSW FEW030 BKN250 QNH2988INS
BECMG 2916/2917 27014G20KT 8000 -SHRA VCTS BKN035CB BKN080 OVC200 QNH2984INS
TEMPO 2917/2922 VRB30G45KT 3200 TSRAGR BKN025CB OVC060
BECMG 2923/2924 30012KT 9999 NSW BKN030 BKN220 510102 QNH2986INS TX31/2820Z TN21/2910Z

Example: see airport list